createdAt,value
2022-10-03T00:01:30.774Z,9.44
2022-10-03T00:03:31.819Z,9.41
2022-10-03T00:05:33.774Z,9.42
2022-10-03T00:07:34.863Z,9.46
2022-10-03T00:09:35.843Z,9.42
2022-10-03T00:11:37.174Z,9.42
2022-10-03T00:13:38.063Z,9.42
2022-10-03T00:15:40.041Z,9.45
2022-10-03T00:17:41.708Z,9.46
2022-10-03T00:19:43.481Z,9.42
2022-10-03T00:21:44.724Z,9.48
2022-10-03T00:23:46.083Z,9.49
2022-10-03T00:25:47.812Z,9.51
2022-10-03T00:27:49.046Z,9.51
2022-10-03T00:29:50.759Z,9.54
2022-10-03T00:31:52.673Z,9.56
2022-10-03T00:33:54.358Z,9.55
2022-10-03T00:35:55.670Z,9.54
2022-10-03T00:37:57.178Z,9.53
2022-10-03T00:39:58.245Z,9.55
2022-10-03T00:41:59.921Z,9.53
2022-10-03T00:44:01.609Z,9.52
2022-10-03T00:46:03.512Z,9.55
2022-10-03T00:48:05.121Z,9.54
2022-10-03T00:50:06.235Z,9.58
2022-10-03T00:52:07.925Z,9.53
2022-10-03T00:54:09.704Z,9.52
2022-10-03T00:56:11.597Z,9.5
2022-10-03T00:58:13.124Z,9.48
2022-10-03T01:00:15.032Z,9.42
2022-10-03T01:02:16.814Z,9.39
2022-10-03T01:04:18.619Z,9.45
2022-10-03T01:06:19.967Z,9.42
2022-10-03T01:08:21.517Z,9.42
2022-10-03T01:10:22.511Z,9.42
2022-10-03T01:12:24.253Z,9.36
2022-10-03T01:14:25.609Z,9.4
2022-10-03T01:16:27.438Z,9.41
2022-10-03T01:18:28.902Z,9.37
2022-10-03T01:20:30.769Z,9.34
2022-10-03T01:22:32.675Z,9.37
2022-10-03T01:24:33.934Z,9.36
2022-10-03T01:26:35.457Z,9.22
2022-10-03T01:28:36.685Z,9.25
2022-10-03T01:30:37.653Z,9.31
2022-10-03T01:32:38.952Z,9.27
2022-10-03T01:34:40.094Z,9.22
2022-10-03T01:36:41.268Z,9.2
2022-10-03T01:38:42.472Z,9.21
2022-10-03T01:40:43.468Z,9.19
2022-10-03T01:42:44.464Z,9.17
2022-10-03T01:44:46.359Z,9.13
2022-10-03T01:46:47.670Z,9.07
2022-10-03T01:48:49.057Z,9.07
2022-10-03T01:50:50.346Z,9.05
2022-10-03T01:52:59.805Z,9.04
2022-10-03T01:54:52.918Z,9.04
2022-10-03T01:56:54.510Z,9.02
2022-10-03T01:58:55.797Z,9.03
2022-10-03T02:00:57.103Z,9
2022-10-03T02:02:59.010Z,9.02
2022-10-03T02:05:00.257Z,9.13
2022-10-03T02:07:01.253Z,9
2022-10-03T02:09:02.891Z,9.02
2022-10-03T02:11:04.306Z,8.87
2022-10-03T02:13:05.452Z,8.83
2022-10-03T02:15:06.471Z,8.83
2022-10-03T02:17:08.150Z,8.76
2022-10-03T02:19:09.175Z,8.66
2022-10-03T02:21:10.160Z,8.55
2022-10-03T02:23:11.857Z,8.52
2022-10-03T02:25:13.633Z,8.56
2022-10-03T02:27:15.030Z,8.57
2022-10-03T02:29:16.587Z,8.54
2022-10-03T02:31:18.198Z,8.56
2022-10-03T02:33:20.004Z,8.47
2022-10-03T02:35:21.861Z,8.42
2022-10-03T02:37:23.247Z,8.43
2022-10-03T02:39:24.676Z,8.54
2022-10-03T02:41:25.775Z,8.47
2022-10-03T02:43:27.653Z,8.51
2022-10-03T02:45:28.661Z,8.47
2022-10-03T02:47:30.230Z,8.48
2022-10-03T02:49:32.027Z,8.36
2022-10-03T02:51:33.152Z,8.31
2022-10-03T02:53:34.142Z,8.32
2022-10-03T02:55:35.402Z,8.32
2022-10-03T02:57:36.714Z,8.29
2022-10-03T02:59:38.150Z,8.26
2022-10-03T03:00:21.973Z,8.26
2022-10-03T03:02:23.311Z,8.31
2022-10-03T03:04:24.248Z,8.31
2022-10-03T03:06:25.435Z,8.3
2022-10-03T03:08:26.852Z,8.22
2022-10-03T03:10:28.562Z,8.15
2022-10-03T03:12:30.185Z,8.08
2022-10-03T03:14:32.006Z,8.02
2022-10-03T03:16:33.200Z,7.96
2022-10-03T03:18:35.010Z,7.93
2022-10-03T03:20:36.122Z,7.86
2022-10-03T03:22:37.107Z,7.88
2022-10-03T03:24:38.135Z,7.85
2022-10-03T03:26:39.696Z,7.83
2022-10-03T03:28:41.310Z,7.81
2022-10-03T03:30:42.345Z,7.76
2022-10-03T03:32:43.835Z,7.69
2022-10-03T03:34:45.120Z,7.68
2022-10-03T03:36:46.635Z,7.63
2022-10-03T03:38:48.373Z,7.56
2022-10-03T03:40:50.246Z,7.49
2022-10-03T03:42:51.222Z,7.43
2022-10-03T03:44:53.115Z,7.48
2022-10-03T03:46:54.658Z,7.49
2022-10-03T03:48:55.845Z,7.43
2022-10-03T03:50:57.450Z,7.34
2022-10-03T03:52:58.951Z,7.29
2022-10-03T03:55:00.525Z,7.26
2022-10-03T03:57:01.865Z,7.18
2022-10-03T03:59:02.922Z,7.1
2022-10-03T04:01:03.918Z,7.1
2022-10-03T04:03:05.232Z,7.09
2022-10-03T04:05:06.348Z,7
2022-10-03T04:07:07.662Z,7.05
2022-10-03T04:09:09.101Z,7.14
2022-10-03T04:11:10.723Z,7.15
2022-10-03T04:13:11.872Z,7.05
2022-10-03T04:15:13.656Z,6.98
2022-10-03T04:17:14.865Z,6.93
2022-10-03T04:19:15.975Z,6.88
2022-10-03T04:21:19.113Z,6.87
2022-10-03T04:23:18.612Z,6.85
2022-10-03T04:25:20.521Z,6.86
2022-10-03T04:27:21.582Z,6.86
2022-10-03T04:29:22.878Z,6.86
2022-10-03T04:31:23.961Z,6.85
2022-10-03T04:33:25.145Z,6.82
2022-10-03T04:35:27.106Z,6.8
2022-10-03T04:37:28.065Z,6.79
2022-10-03T04:41:30.947Z,6.76
2022-10-03T04:43:32.237Z,6.76
2022-10-03T04:45:33.751Z,6.76
2022-10-03T04:47:35.539Z,6.79
2022-10-03T04:49:36.751Z,6.79
2022-10-03T04:51:38.291Z,6.79
2022-10-03T04:53:39.647Z,6.77
2022-10-03T04:55:41.104Z,6.76
2022-10-03T04:57:42.174Z,6.77
2022-10-03T04:59:43.428Z,6.74
2022-10-03T05:01:45.061Z,6.74
2022-10-03T05:03:46.220Z,6.76
2022-10-03T05:05:48.002Z,6.75
2022-10-03T05:07:49.094Z,6.7
2022-10-03T05:09:50.710Z,6.65
2022-10-03T05:11:51.914Z,6.63
2022-10-03T05:13:53.515Z,6.63
2022-10-03T05:15:54.579Z,6.58
2022-10-03T05:17:55.701Z,6.59
2022-10-03T05:19:57.199Z,6.56
2022-10-03T05:21:58.989Z,6.58
2022-10-03T05:24:00.276Z,6.55
2022-10-03T05:26:16.566Z,6.54
2022-10-03T05:28:03.793Z,6.58
2022-10-03T05:30:04.791Z,6.55
2022-10-03T05:32:06.398Z,6.56
2022-10-03T05:34:07.614Z,6.49
2022-10-03T05:36:09.272Z,6.51
2022-10-03T05:38:10.958Z,6.51
2022-10-03T05:40:12.094Z,6.56
2022-10-03T05:42:22.488Z,6.59
2022-10-03T05:44:15.361Z,6.58
2022-10-03T05:46:16.710Z,6.6
2022-10-03T05:48:18.266Z,6.6
2022-10-03T05:50:20.142Z,6.6
2022-10-03T05:52:21.136Z,6.59
2022-10-03T05:54:22.403Z,6.56
2022-10-03T05:56:23.910Z,6.52
2022-10-03T05:58:25.775Z,6.49
2022-10-03T06:00:27.651Z,6.43
2022-10-03T06:02:28.982Z,6.41
2022-10-03T06:04:29.958Z,6.47
2022-10-03T06:06:31.247Z,6.47
2022-10-03T06:08:32.797Z,6.42
2022-10-03T06:10:34.201Z,6.46
2022-10-03T06:12:35.631Z,6.44
2022-10-03T06:14:37.110Z,6.4
2022-10-03T06:16:38.510Z,6.54
2022-10-03T06:18:39.991Z,6.62
2022-10-03T06:22:42.305Z,6.68
2022-10-03T06:24:44.120Z,6.65
2022-10-03T06:26:45.350Z,6.59
2022-10-03T06:28:47.155Z,6.74
2022-10-03T06:30:48.209Z,6.76
2022-10-03T06:32:50.043Z,6.83
2022-10-03T06:34:51.323Z,6.84
2022-10-03T06:36:53.096Z,6.92
2022-10-03T06:38:54.863Z,6.92
2022-10-03T06:40:56.060Z,6.96
2022-10-03T06:42:57.462Z,7.27
2022-10-03T06:44:59.311Z,7.26
2022-10-03T06:47:00.740Z,7.33
2022-10-03T06:49:02.672Z,7.51
2022-10-03T06:51:03.860Z,7.63
2022-10-03T06:53:05.749Z,7.61
2022-10-03T06:55:07.382Z,7.64
2022-10-03T06:57:08.932Z,7.76
2022-10-03T06:59:10.138Z,7.63
2022-10-03T07:01:11.926Z,7.43
2022-10-03T07:05:14.469Z,7.79
2022-10-03T07:07:15.659Z,7.69
2022-10-03T07:09:16.748Z,8.03
2022-10-03T07:11:17.877Z,8.32
2022-10-03T07:13:18.903Z,8.4
2022-10-03T07:15:20.366Z,8.36
2022-10-03T07:17:21.391Z,8.58
2022-10-03T07:19:22.790Z,8.86
2022-10-03T07:21:24.576Z,9.15
2022-10-03T07:23:26.056Z,9.19
2022-10-03T07:25:27.018Z,9.67
2022-10-03T07:27:27.948Z,9.98
2022-10-03T07:29:29.659Z,9.84
2022-10-03T07:31:31.515Z,9.78
2022-10-03T07:33:36.694Z,9.37
2022-10-03T07:35:34.573Z,9.8
2022-10-03T07:37:35.749Z,9.31
2022-10-03T07:39:37.267Z,9.83
2022-10-03T07:47:42.682Z,10.7
2022-10-03T07:49:43.703Z,10.9
2022-10-03T07:51:44.877Z,11.38
2022-10-03T07:53:46.431Z,11.27
2022-10-03T07:55:47.554Z,11.23
2022-10-03T07:57:49.578Z,11.51
2022-10-03T07:59:50.814Z,11.6
2022-10-03T08:01:52.497Z,11.8
2022-10-03T08:03:53.940Z,11.91
2022-10-03T08:05:55.711Z,12.08
2022-10-03T08:07:57.461Z,12.09
2022-10-03T08:09:58.760Z,12.18
2022-10-03T08:12:00.429Z,12.27
2022-10-03T08:14:01.256Z,12.54
2022-10-03T08:16:02.257Z,11.98
2022-10-03T08:18:03.404Z,11.76
2022-10-03T08:20:04.839Z,11.7
2022-10-03T08:22:06.307Z,11.89
2022-10-03T08:24:07.562Z,12.01
2022-10-03T08:26:08.797Z,12.23
2022-10-03T08:28:10.375Z,12.34
2022-10-03T08:30:11.487Z,12.77
2022-10-03T08:32:12.655Z,12.59
2022-10-03T08:34:14.043Z,13.14
2022-10-03T08:36:15.388Z,13.01
2022-10-03T08:38:17.049Z,13.34
2022-10-03T08:40:18.789Z,13.51
2022-10-03T08:42:20.276Z,13.8
2022-10-03T08:44:21.237Z,14.23
2022-10-03T08:46:22.850Z,14.58
2022-10-03T08:48:24.365Z,14.42
2022-10-03T08:50:25.431Z,14.47
2022-10-03T08:52:27.152Z,13.87
2022-10-03T08:54:28.790Z,13.88
2022-10-03T08:56:30.241Z,13.91
2022-10-03T08:58:31.106Z,14.38
2022-10-03T09:00:31.915Z,13.74
2022-10-03T09:02:34.269Z,13.93
2022-10-03T09:04:35.270Z,13.78
2022-10-03T09:06:44.789Z,13.57
2022-10-03T09:08:38.131Z,13.71
2022-10-03T09:10:39.335Z,14.4
2022-10-03T09:12:40.952Z,13.81
2022-10-03T09:14:41.891Z,14.84
2022-10-03T09:16:43.676Z,14.83
2022-10-03T09:18:44.769Z,14.35
2022-10-03T09:20:46.209Z,14.27
2022-10-03T09:22:47.072Z,14.47
2022-10-03T09:24:48.299Z,14.39
2022-10-03T09:26:49.802Z,15.06
2022-10-03T09:28:51.293Z,15.13
2022-10-03T09:30:53.119Z,14.25
2022-10-03T09:32:53.912Z,13.94
2022-10-03T09:34:55.401Z,13.9
2022-10-03T09:36:57.101Z,14.11
2022-10-03T09:38:57.980Z,14.61
2022-10-03T09:40:59.699Z,14.44
2022-10-03T09:43:00.460Z,14.74
2022-10-03T09:45:01.299Z,15.13
2022-10-03T09:45:45.009Z,15.2
2022-10-03T09:47:45.801Z,14.9
2022-10-03T09:49:47.222Z,15.1
2022-10-03T09:51:48.444Z,15.63
2022-10-03T09:53:49.753Z,15.63
2022-10-03T09:55:50.676Z,15.57
2022-10-03T09:57:52.320Z,15.28
2022-10-03T09:59:53.445Z,14.98
2022-10-03T10:01:54.365Z,14.82
2022-10-03T10:03:56.347Z,15.22
2022-10-03T10:05:57.890Z,15.17
2022-10-03T10:07:58.751Z,15.08
2022-10-03T10:10:00.446Z,15.54
2022-10-03T10:12:01.773Z,16.01
2022-10-03T10:14:07.450Z,16.32
2022-10-03T10:16:03.959Z,16.35
2022-10-03T10:18:04.966Z,16.09
2022-10-03T10:22:06.938Z,15.07
2022-10-03T10:24:08.707Z,15.05
2022-10-03T10:26:10.062Z,14.74
2022-10-03T10:28:11.796Z,14.36
2022-10-03T10:30:13.303Z,14.18
2022-10-03T10:32:19.090Z,14.12
2022-10-03T10:34:16.428Z,14.11
2022-10-03T10:36:17.810Z,14.07
2022-10-03T10:38:19.026Z,13.92
2022-10-03T10:40:20.082Z,14.18
2022-10-03T10:42:21.069Z,14.29
2022-10-03T10:44:22.430Z,14.48
2022-10-03T10:46:23.998Z,14.72
2022-10-03T10:48:24.847Z,14.6
2022-10-03T10:50:26.139Z,14.6
2022-10-03T10:52:27.760Z,14.69
2022-10-03T10:54:29.190Z,14.66
2022-10-03T10:56:30.100Z,14.5
2022-10-03T10:58:31.074Z,14.53
2022-10-03T11:00:32.005Z,14.68
2022-10-03T11:02:33.557Z,14.78
2022-10-03T11:04:34.547Z,14.91
2022-10-03T11:06:35.588Z,15.1
2022-10-03T11:08:36.469Z,15.08
2022-10-03T11:10:37.748Z,15.21
2022-10-03T11:12:39.280Z,15.15
2022-10-03T11:14:40.736Z,15.06
2022-10-03T11:16:42.113Z,15.3
2022-10-03T11:18:43.106Z,15.44
2022-10-03T11:20:44.867Z,15.41
2022-10-03T11:22:45.956Z,15.11
2022-10-03T11:24:47.679Z,15.38
2022-10-03T11:26:49.466Z,15.11
2022-10-03T11:28:50.769Z,15.54
2022-10-03T11:30:52.062Z,15.96
2022-10-03T11:32:53.825Z,15.21
2022-10-03T11:34:55.014Z,15.29
2022-10-03T11:36:56.761Z,15.49
2022-10-03T11:38:58.430Z,15.42
2022-10-03T11:40:59.851Z,15.42
2022-10-03T11:43:00.739Z,15.5
2022-10-03T11:45:01.788Z,15.42
2022-10-03T11:47:03.246Z,15.05
2022-10-03T11:49:04.974Z,15.19
2022-10-03T11:51:06.244Z,15.42
2022-10-03T11:53:07.471Z,15.34
2022-10-03T11:55:08.463Z,15.28
2022-10-03T11:57:09.751Z,15.52
2022-10-03T11:59:11.279Z,15.56
2022-10-03T12:01:12.988Z,15.64
2022-10-03T12:03:14.228Z,15.8
2022-10-03T12:05:15.759Z,15.94
2022-10-03T12:07:17.591Z,16.15
2022-10-03T12:09:18.800Z,16.04
2022-10-03T12:11:20.394Z,15.47
2022-10-03T12:13:21.749Z,15.6
2022-10-03T12:15:22.974Z,15.56
2022-10-03T12:17:24.050Z,15.75
2022-10-03T12:19:25.754Z,15.54
2022-10-03T12:21:27.084Z,15.83
2022-10-03T12:23:28.632Z,16
2022-10-03T12:25:29.663Z,16.07
2022-10-03T12:27:30.938Z,16.24
2022-10-03T12:29:31.856Z,16.14
2022-10-03T12:31:33.045Z,15.82
2022-10-03T12:33:34.408Z,15.85
2022-10-03T12:35:36.068Z,15.8
2022-10-03T12:37:37.392Z,15.45
2022-10-03T12:39:38.410Z,15.41
2022-10-03T12:41:39.563Z,15.54
2022-10-03T12:43:40.511Z,15.52
2022-10-03T12:45:42.160Z,15.67
2022-10-03T12:47:55.150Z,15.73
2022-10-03T12:49:44.859Z,15.87
2022-10-03T12:51:45.873Z,15.78
2022-10-03T12:53:46.894Z,15.93
2022-10-03T12:55:48.283Z,15.87
2022-10-03T12:57:49.611Z,15.95
2022-10-03T12:59:50.458Z,15.81
2022-10-03T13:01:51.668Z,16.2
2022-10-03T13:03:52.946Z,15.75
2022-10-03T13:05:54.085Z,15.79
2022-10-03T13:07:55.020Z,15.81
2022-10-03T13:09:56.324Z,15.98
2022-10-03T13:13:59.787Z,15.78
2022-10-03T13:16:01.385Z,15.82
2022-10-03T13:18:02.318Z,15.93
2022-10-03T13:20:03.594Z,16.1
2022-10-03T13:22:05.125Z,16.1
2022-10-03T13:24:06.344Z,16.33
2022-10-03T13:26:11.019Z,16.24
2022-10-03T13:28:09.733Z,16.21
2022-10-03T13:30:10.538Z,16.75
2022-10-03T13:32:12.371Z,16.73
2022-10-03T13:34:13.635Z,16.57
2022-10-03T13:36:14.932Z,16.67
2022-10-03T13:38:16.501Z,16.62
2022-10-03T13:40:18.065Z,16.83
2022-10-03T13:42:19.036Z,16.8
2022-10-03T13:44:20.285Z,16.57
2022-10-03T13:46:21.987Z,16.53
2022-10-03T13:48:23.500Z,16.87
2022-10-03T13:50:25.087Z,16.69
2022-10-03T13:52:25.974Z,16.72
2022-10-03T13:54:26.995Z,16.21
2022-10-03T13:56:28.269Z,15.96
2022-10-03T13:58:29.371Z,15.79
2022-10-03T14:00:30.675Z,15.88
2022-10-03T14:02:32.585Z,15.92
2022-10-03T14:06:37.678Z,16.24
2022-10-03T14:08:35.736Z,16.39
2022-10-03T14:10:36.915Z,16.29
2022-10-03T14:12:54.738Z,16.14
2022-10-03T14:14:39.468Z,15.78
2022-10-03T14:16:41.094Z,15.72
2022-10-03T14:18:42.268Z,15.55
2022-10-03T14:20:43.582Z,15.22
2022-10-03T14:22:44.563Z,15.17
2022-10-03T14:24:46.297Z,15.19
2022-10-03T14:26:47.474Z,15.33
2022-10-03T14:28:49.055Z,15.77
2022-10-03T14:31:05.342Z,16.27
2022-10-03T14:32:52.391Z,16.09
2022-10-03T14:34:53.328Z,16.06
2022-10-03T14:36:54.486Z,16.02
2022-10-03T14:38:55.837Z,16.05
2022-10-03T14:40:57.169Z,15.81
2022-10-03T14:42:58.833Z,15.78
2022-10-03T14:45:00.098Z,15.54
2022-10-03T14:47:01.650Z,15.39
2022-10-03T14:49:03.217Z,15.53
2022-10-03T14:51:04.772Z,15.58
2022-10-03T14:53:05.656Z,15.6
2022-10-03T14:55:06.708Z,15.78
2022-10-03T14:57:07.902Z,15.76
2022-10-03T14:59:09.425Z,15.5
2022-10-03T15:01:10.278Z,15.55
2022-10-03T15:03:11.345Z,15.74
2022-10-03T15:05:12.338Z,15.76
2022-10-03T15:07:13.669Z,15.83
2022-10-03T15:09:15.123Z,15.98
2022-10-03T15:11:16.000Z,15.8
2022-10-03T15:13:17.652Z,15.81
2022-10-03T15:15:18.956Z,15.98
2022-10-03T15:17:20.111Z,15.8
2022-10-03T15:19:21.862Z,15.68
2022-10-03T15:21:22.847Z,15.49
2022-10-03T15:23:24.284Z,15.47
2022-10-03T15:25:25.635Z,15.31
2022-10-03T15:27:26.591Z,15.12
2022-10-03T15:29:27.560Z,14.97
2022-10-03T15:31:29.051Z,14.82
2022-10-03T15:33:30.553Z,14.84
2022-10-03T15:35:31.920Z,14.79
2022-10-03T15:37:32.871Z,14.77
2022-10-03T15:39:34.439Z,14.91
2022-10-03T15:41:36.241Z,14.91
2022-10-03T15:43:37.182Z,15.13
2022-10-03T15:45:39.083Z,15.39
2022-10-03T15:47:40.490Z,15.36
2022-10-03T15:49:41.530Z,15.45
2022-10-03T15:51:43.506Z,15.3
2022-10-03T15:53:44.399Z,15.28
2022-10-03T15:55:45.861Z,15.22
2022-10-03T15:57:47.530Z,15.17
2022-10-03T15:59:49.145Z,15.26
2022-10-03T16:01:51.022Z,15.2
2022-10-03T16:03:52.391Z,15.25
2022-10-03T16:05:53.979Z,15.17
2022-10-03T16:07:54.963Z,15.2
2022-10-03T16:09:56.663Z,15.1
2022-10-03T16:11:57.941Z,15.08
2022-10-03T16:13:59.436Z,14.91
2022-10-03T16:16:00.686Z,14.96
2022-10-03T16:18:01.963Z,15.04
2022-10-03T16:20:03.102Z,14.82
2022-10-03T16:22:04.505Z,14.79
2022-10-03T16:24:06.064Z,14.89
2022-10-03T16:26:06.841Z,14.76
2022-10-03T16:28:08.416Z,14.33
2022-10-03T16:30:09.477Z,14.26
2022-10-03T16:31:02.302Z,14.18
2022-10-03T16:33:03.337Z,14.42
2022-10-03T16:35:04.221Z,13.95
2022-10-03T16:37:05.526Z,13.73
2022-10-03T16:39:07.130Z,13.33
2022-10-03T16:41:08.755Z,12.9
2022-10-03T16:43:09.839Z,12.65
2022-10-03T16:45:11.285Z,12.58
2022-10-03T16:47:12.921Z,12.54
2022-10-03T16:49:14.674Z,12.41
2022-10-03T16:51:16.226Z,12.29
2022-10-03T16:53:17.774Z,12.15
2022-10-03T16:55:18.950Z,11.94
2022-10-03T16:57:19.963Z,11.85
2022-10-03T16:59:21.160Z,11.78
2022-10-03T17:01:27.171Z,11.76
2022-10-03T17:03:23.998Z,11.74
2022-10-03T17:05:25.812Z,11.8
2022-10-03T17:07:26.753Z,11.78
2022-10-03T17:09:28.621Z,11.76
2022-10-03T17:11:30.371Z,11.68
2022-10-03T17:13:31.853Z,11.53
2022-10-03T17:15:32.872Z,11.51
2022-10-03T17:17:34.597Z,11.28
2022-10-03T17:19:36.121Z,11.21
2022-10-03T17:21:37.456Z,11.01
2022-10-03T17:23:38.408Z,11
2022-10-03T17:27:41.174Z,11.02
2022-10-03T17:29:42.237Z,10.95
2022-10-03T17:31:43.611Z,10.9
2022-10-03T17:33:44.397Z,10.96
2022-10-03T17:35:46.316Z,10.79
2022-10-03T17:37:47.926Z,10.7
2022-10-03T17:39:49.487Z,10.53
2022-10-03T17:41:50.931Z,10.43
2022-10-03T17:43:52.633Z,10.33
2022-10-03T17:45:54.009Z,10.22
2022-10-03T17:47:55.218Z,10.34
2022-10-03T17:49:56.349Z,10.25
2022-10-03T17:51:57.925Z,10.2
2022-10-03T17:53:58.888Z,10.17
2022-10-03T17:56:00.408Z,9.99
2022-10-03T18:00:03.430Z,9.85
2022-10-03T18:02:04.616Z,9.86
2022-10-03T18:04:05.752Z,9.81
2022-10-03T18:06:09.776Z,9.77
2022-10-03T18:08:08.205Z,9.73
2022-10-03T18:10:09.233Z,9.56
2022-10-03T18:12:11.129Z,9.52
2022-10-03T18:14:12.341Z,9.49
2022-10-03T18:16:14.316Z,9.56
2022-10-03T18:18:16.098Z,9.52
2022-10-03T18:20:17.402Z,9.5
2022-10-03T18:22:18.632Z,9.48
2022-10-03T18:24:20.264Z,9.38
2022-10-03T18:26:21.819Z,9.3
2022-10-03T18:28:23.504Z,9.16
2022-10-03T18:30:25.121Z,9.07
2022-10-03T18:32:26.248Z,9
2022-10-03T18:34:27.654Z,8.95
2022-10-03T18:36:29.299Z,8.85
2022-10-03T18:38:31.042Z,8.89
2022-10-03T18:40:32.642Z,8.88
2022-10-03T18:42:33.809Z,8.81
2022-10-03T18:44:35.511Z,8.66
2022-10-03T18:46:36.702Z,8.53
2022-10-03T18:48:38.503Z,8.35
2022-10-03T18:50:39.875Z,8.3
2022-10-03T18:52:41.220Z,8.32
2022-10-03T18:54:43.105Z,8.49
2022-10-03T18:56:44.503Z,8.53
2022-10-03T18:58:45.575Z,8.39
2022-10-03T19:00:46.973Z,8.3
2022-10-03T19:02:48.477Z,8.37
2022-10-03T19:04:49.856Z,8.31
2022-10-03T19:06:51.130Z,8.3
2022-10-03T19:08:52.248Z,8.2
2022-10-03T19:10:53.532Z,8.11
2022-10-03T19:12:55.037Z,8.09
2022-10-03T19:14:56.629Z,7.94
2022-10-03T19:16:58.237Z,7.86
2022-10-03T19:19:00.151Z,7.92
2022-10-03T19:21:01.628Z,7.91
2022-10-03T19:23:03.376Z,8.01
2022-10-03T19:25:04.882Z,7.9
2022-10-03T19:27:05.932Z,7.79
2022-10-03T19:29:07.470Z,7.73
2022-10-03T19:31:08.874Z,7.66
2022-10-03T19:33:10.154Z,7.53
2022-10-03T19:35:12.121Z,7.49
2022-10-03T19:37:13.442Z,7.68
2022-10-03T19:39:15.325Z,7.71
2022-10-03T19:41:17.039Z,7.79
2022-10-03T19:43:18.019Z,7.71
2022-10-03T19:45:19.319Z,7.62
2022-10-03T19:47:20.968Z,7.53
2022-10-03T19:49:22.412Z,7.6
2022-10-03T19:51:25.550Z,7.68
2022-10-03T19:53:25.445Z,7.61
2022-10-03T19:55:27.139Z,7.6
2022-10-03T19:57:28.766Z,7.64
2022-10-03T19:59:30.152Z,7.6
2022-10-03T20:01:31.800Z,7.54
2022-10-03T20:03:33.524Z,7.62
2022-10-03T20:05:34.580Z,7.57
2022-10-03T20:07:35.748Z,7.49
2022-10-03T20:09:37.413Z,7.38
2022-10-03T20:11:38.851Z,7.35
2022-10-03T20:13:40.312Z,7.29
2022-10-03T20:15:41.411Z,7.3
2022-10-03T20:17:42.667Z,7.31
2022-10-03T20:19:44.088Z,7.25
2022-10-03T20:23:47.223Z,7.22
2022-10-03T20:25:48.813Z,7.05
2022-10-03T20:27:50.532Z,6.97
2022-10-03T20:29:51.975Z,6.85
2022-10-03T20:31:53.671Z,6.8
2022-10-03T20:33:55.402Z,6.8
2022-10-03T20:35:56.383Z,6.73
2022-10-03T20:37:58.186Z,6.82
2022-10-03T20:39:59.693Z,6.89
2022-10-03T20:42:00.847Z,6.99
2022-10-03T20:44:02.490Z,6.91
2022-10-03T20:46:04.002Z,6.89
2022-10-03T20:48:05.367Z,6.92
2022-10-03T20:50:06.865Z,6.88
2022-10-03T20:52:08.543Z,6.89
2022-10-03T20:54:09.666Z,6.88
2022-10-03T20:56:10.882Z,6.78
2022-10-03T20:58:11.995Z,6.76
2022-10-03T21:02:15.705Z,6.65
2022-10-03T21:04:16.805Z,6.52
2022-10-03T21:06:18.260Z,6.45
2022-10-03T21:08:19.719Z,6.38
2022-10-03T21:10:21.219Z,6.3
2022-10-03T21:12:23.127Z,6.33
2022-10-03T21:14:24.958Z,6.2
2022-10-03T21:16:26.849Z,6.22
2022-10-03T21:18:28.583Z,6.27
2022-10-03T21:20:29.606Z,6.23
2022-10-03T21:22:31.567Z,6.23
2022-10-03T21:24:32.843Z,6.14
2022-10-03T21:26:34.816Z,6.15
2022-10-03T21:28:36.759Z,6.07
2022-10-03T21:30:38.713Z,6.03
2022-10-03T21:32:40.373Z,5.97
2022-10-03T21:34:42.331Z,5.91
2022-10-03T21:36:44.310Z,6.12
2022-10-03T21:38:45.659Z,6.27
2022-10-03T21:40:47.231Z,6.24
2022-10-03T21:42:48.714Z,6.17
2022-10-03T21:44:49.894Z,6.1
2022-10-03T21:48:53.382Z,5.95
2022-10-03T21:50:55.240Z,5.96
2022-10-03T21:52:57.250Z,5.92
2022-10-03T21:54:58.742Z,5.83
2022-10-03T21:56:59.769Z,5.82
2022-10-03T21:59:01.298Z,5.83
2022-10-03T22:01:02.747Z,5.73
2022-10-03T22:03:03.852Z,5.7
2022-10-03T22:05:05.219Z,5.65
2022-10-03T22:07:06.476Z,5.53
2022-10-03T22:09:07.820Z,5.53
2022-10-03T22:11:09.766Z,5.7
2022-10-03T22:13:11.586Z,5.84
2022-10-03T22:15:12.958Z,5.79
2022-10-03T22:17:14.105Z,5.82
2022-10-03T22:19:16.070Z,5.77
2022-10-03T22:21:17.548Z,5.73
2022-10-03T22:23:18.547Z,5.82
2022-10-03T22:25:19.754Z,5.75
2022-10-03T22:27:21.166Z,5.62
2022-10-03T22:29:23.163Z,5.54
2022-10-03T22:31:23.596Z,5.62
2022-10-03T22:33:25.436Z,5.66
2022-10-03T22:35:27.040Z,5.61
2022-10-03T22:37:28.953Z,5.68
2022-10-03T22:39:30.033Z,5.67
2022-10-03T22:41:31.967Z,5.65
2022-10-03T22:43:33.790Z,5.62
2022-10-03T22:45:35.688Z,5.72
2022-10-03T22:47:37.685Z,5.71
2022-10-03T22:49:39.111Z,5.68
2022-10-03T22:51:40.365Z,5.73
2022-10-03T22:53:41.971Z,5.68
2022-10-03T22:55:43.460Z,5.64
2022-10-03T22:57:44.619Z,5.6
2022-10-03T22:59:45.800Z,5.62
2022-10-03T23:01:47.667Z,5.64
2022-10-03T23:03:48.784Z,5.53
2022-10-03T23:05:49.787Z,5.3
2022-10-03T23:07:51.762Z,5.14
2022-10-03T23:09:53.728Z,5.21
2022-10-03T23:11:55.273Z,5.31
2022-10-03T23:13:57.156Z,5.32
2022-10-03T23:15:58.835Z,5.26
2022-10-03T23:18:44.440Z,5.14
2022-10-03T23:20:45.829Z,5.05
2022-10-03T23:22:47.181Z,5.04
2022-10-03T23:24:48.934Z,5.11
2022-10-03T23:26:50.329Z,5.13
2022-10-03T23:28:52.035Z,5.05
2022-10-03T23:30:54.123Z,5.01
2022-10-03T23:32:55.654Z,4.95
2022-10-03T23:34:57.264Z,4.84
2022-10-03T23:36:59.027Z,4.79
2022-10-03T23:39:00.685Z,4.83
2022-10-03T23:41:01.842Z,4.81
2022-10-03T23:43:03.089Z,4.81
2022-10-03T23:45:05.047Z,4.76
2022-10-03T23:47:06.084Z,4.55
2022-10-03T23:49:07.518Z,4.42
2022-10-03T23:51:09.043Z,4.36
2022-10-03T23:53:10.185Z,4.45
2022-10-03T23:55:11.222Z,4.49
2022-10-03T23:57:12.729Z,4.5
2022-10-03T23:59:14.203Z,4.57
